createdAt,value
2017-10-22T00:00:49.956Z,1.33
2017-10-22T00:03:17.396Z,1.60
2017-10-22T00:05:44.829Z,1.93
2017-10-22T00:08:13.043Z,1.23
2017-10-22T00:10:40.483Z,1.50
2017-10-22T00:13:07.926Z,2.00
2017-10-22T00:15:35.366Z,1.83
2017-10-22T00:18:03.587Z,1.07
2017-10-22T00:20:31.030Z,1.13
2017-10-22T00:22:58.497Z,1.87
2017-10-22T00:25:25.927Z,1.67
2017-10-22T00:27:53.371Z,2.30
2017-10-22T00:30:21.631Z,2.50
2017-10-22T00:32:49.071Z,2.43
2017-10-22T00:35:16.527Z,1.30
2017-10-22T00:37:43.976Z,1.57
2017-10-22T00:40:11.428Z,1.67
2017-10-22T00:42:38.884Z,1.50
2017-10-22T00:45:06.346Z,2.73
2017-10-22T00:47:33.807Z,1.27
2017-10-22T00:50:01.232Z,1.00
2017-10-22T00:52:28.667Z,1.60
2017-10-22T00:54:56.879Z,0.93
2017-10-22T00:57:24.336Z,1.37
2017-10-22T00:59:51.771Z,1.17
2017-10-22T01:02:19.219Z,1.47
2017-10-22T01:04:46.656Z,1.40
2017-10-22T01:07:14.880Z,1.73
2017-10-22T01:09:42.323Z,1.70
2017-10-22T01:12:09.775Z,1.90
2017-10-22T01:14:37.234Z,1.60
2017-10-22T01:17:04.659Z,1.67
2017-10-22T01:19:32.876Z,1.67
2017-10-22T01:22:00.306Z,3.33
2017-10-22T01:24:27.756Z,1.20
2017-10-22T01:26:55.967Z,1.67
2017-10-22T01:29:23.419Z,1.67
2017-10-22T01:31:50.854Z,1.90
2017-10-22T01:34:18.304Z,1.50
2017-10-22T01:36:46.516Z,2.67
2017-10-22T01:39:13.978Z,1.47
2017-10-22T01:41:41.406Z,1.70
2017-10-22T01:44:08.868Z,1.43
2017-10-22T01:46:36.307Z,1.90
2017-10-22T01:49:03.743Z,1.23
2017-10-22T01:51:31.183Z,1.30
2017-10-22T01:53:58.635Z,1.80
2017-10-22T01:56:26.087Z,1.37
2017-10-22T01:58:53.528Z,1.80
2017-10-22T02:01:20.976Z,1.57
2017-10-22T02:03:48.436Z,1.60
2017-10-22T02:06:15.890Z,1.50
2017-10-22T02:08:43.350Z,1.80
2017-10-22T02:11:10.777Z,1.33
2017-10-22T02:13:38.232Z,1.83
2017-10-22T02:16:06.436Z,1.90
2017-10-22T02:18:33.890Z,1.60
2017-10-22T02:21:01.329Z,1.77
2017-10-22T02:23:28.755Z,1.73
2017-10-22T02:25:56.214Z,2.50
2017-10-22T02:28:23.644Z,1.80
2017-10-22T02:30:51.098Z,1.40
2017-10-22T02:33:18.543Z,2.20
2017-10-22T02:35:46.002Z,1.57
2017-10-22T02:38:13.457Z,1.50
2017-10-22T02:40:40.925Z,1.67
2017-10-22T02:43:08.390Z,2.07
2017-10-22T02:45:35.834Z,1.30
2017-10-22T02:48:03.288Z,4.00
2017-10-22T02:50:30.736Z,2.57
2017-10-22T02:52:58.195Z,1.30
2017-10-22T02:55:25.631Z,2.50
2017-10-22T02:57:53.071Z,1.83
2017-10-22T03:00:21.291Z,2.17
2017-10-22T03:02:48.735Z,1.60
2017-10-22T03:05:16.210Z,2.10
2017-10-22T03:07:43.651Z,2.20
2017-10-22T03:10:11.105Z,1.53
2017-10-22T03:12:38.536Z,1.60
2017-10-22T03:15:06.743Z,1.90
2017-10-22T03:17:34.199Z,1.77
2017-10-22T03:20:01.649Z,1.53
2017-10-22T03:22:29.086Z,2.23
2017-10-22T03:24:56.543Z,1.70
2017-10-22T03:27:23.984Z,1.90
2017-10-22T03:29:52.199Z,0.90
2017-10-22T03:32:19.650Z,1.60
2017-10-22T03:34:47.123Z,1.80
2017-10-22T03:37:14.559Z,1.47
2017-10-22T03:39:41.994Z,1.77
2017-10-22T03:42:10.202Z,2.27
2017-10-22T03:44:37.639Z,1.77
2017-10-22T03:47:05.084Z,1.23
2017-10-22T03:49:33.289Z,1.83
2017-10-22T03:52:01.355Z,1.43
2017-10-22T03:54:28.883Z,1.97
2017-10-22T03:56:57.101Z,2.20
2017-10-22T03:59:24.548Z,1.80
2017-10-22T04:01:51.980Z,1.90
2017-10-22T04:04:19.442Z,1.83
2017-10-22T04:06:47.660Z,0.90
2017-10-22T04:09:15.131Z,1.93
2017-10-22T04:11:42.567Z,2.10
2017-10-22T04:14:10.014Z,1.70
2017-10-22T04:16:37.475Z,2.23
2017-10-22T04:19:04.928Z,2.27
2017-10-22T04:21:32.377Z,2.23
2017-10-22T04:23:59.819Z,2.47
2017-10-22T04:26:27.299Z,1.60
2017-10-22T04:28:54.739Z,2.03
2017-10-22T04:31:22.181Z,1.53
2017-10-22T04:33:50.397Z,1.83
2017-10-22T04:36:17.845Z,1.57
2017-10-22T04:38:45.300Z,2.23
2017-10-22T04:43:47.392Z,1.50
2017-10-22T04:46:14.823Z,1.97
2017-10-22T04:48:42.282Z,1.73
2017-10-22T04:51:09.738Z,1.60
2017-10-22T04:53:37.169Z,1.47
2017-10-22T04:56:04.615Z,1.47
2017-10-22T04:58:32.056Z,2.77
2017-10-22T05:00:59.515Z,2.13
2017-10-22T05:03:26.959Z,2.37
2017-10-22T05:05:54.415Z,1.73
2017-10-22T05:08:21.861Z,1.77
2017-10-22T05:10:49.332Z,1.97
2017-10-22T05:13:16.772Z,2.00
2017-10-22T05:15:44.223Z,1.30
2017-10-22T05:18:11.680Z,1.83
2017-10-22T05:20:39.140Z,2.03
2017-10-22T05:23:06.592Z,1.57
2017-10-22T05:25:34.035Z,1.70
2017-10-22T05:28:01.496Z,1.50
2017-10-22T05:30:28.942Z,2.50
2017-10-22T05:32:56.424Z,1.90
2017-10-22T05:35:23.875Z,1.97
2017-10-22T05:37:51.319Z,1.70
2017-10-22T05:40:18.762Z,1.87
2017-10-22T05:42:46.203Z,2.20
2017-10-22T05:45:14.425Z,1.57
2017-10-22T05:47:41.868Z,1.60
2017-10-22T05:50:09.307Z,1.70
2017-10-22T05:52:36.743Z,1.50
2017-10-22T05:55:04.986Z,1.37
2017-10-22T05:57:32.410Z,1.83
2017-10-22T05:59:59.862Z,1.10
2017-10-22T06:02:27.321Z,1.83
2017-10-22T06:04:55.539Z,1.80
2017-10-22T06:07:22.991Z,1.57
2017-10-22T06:09:50.443Z,1.53
2017-10-22T06:12:17.918Z,1.60
2017-10-22T06:14:45.364Z,1.80
2017-10-22T06:17:12.810Z,1.13
2017-10-22T06:19:40.267Z,1.37
2017-10-22T06:22:07.719Z,1.80
2017-10-22T06:24:35.173Z,1.50
2017-10-22T06:27:02.627Z,1.77
2017-10-22T06:29:30.087Z,1.00
2017-10-22T06:31:57.527Z,1.93
2017-10-22T06:34:25.001Z,1.13
2017-10-22T06:36:52.440Z,2.33
2017-10-22T06:39:19.881Z,1.00
2017-10-22T06:41:48.092Z,1.40
2017-10-22T06:44:15.542Z,1.00
2017-10-22T06:46:42.991Z,1.30
2017-10-22T06:49:10.436Z,0.87
2017-10-22T06:51:37.890Z,1.23
2017-10-22T06:54:05.329Z,1.10
2017-10-22T06:56:33.554Z,0.83
2017-10-22T06:59:00.982Z,0.80
2017-10-22T07:01:28.425Z,1.50
2017-10-22T07:03:56.650Z,1.23
2017-10-22T07:06:24.079Z,1.10
2017-10-22T07:08:51.552Z,1.10
2017-10-22T07:11:19.008Z,1.00
2017-10-22T07:13:46.466Z,0.83
2017-10-22T07:16:13.910Z,1.10
2017-10-22T07:18:41.408Z,1.00
2017-10-22T07:21:08.847Z,0.90
2017-10-22T07:23:36.304Z,1.10
2017-10-22T07:26:03.752Z,1.10
2017-10-22T07:28:31.200Z,0.80
2017-10-22T07:30:58.655Z,1.00
2017-10-22T07:33:26.090Z,0.70
2017-10-22T07:35:53.540Z,1.03
2017-10-22T07:38:21.757Z,1.30
2017-10-22T07:40:49.210Z,0.80
2017-10-22T07:43:16.651Z,0.80
2017-10-22T07:45:44.094Z,0.83
2017-10-22T07:48:11.548Z,0.80
2017-10-22T07:50:39.775Z,0.70
2017-10-22T07:53:07.997Z,0.70
2017-10-22T07:55:36.208Z,1.10
2017-10-22T07:58:03.664Z,1.10
2017-10-22T08:00:31.101Z,0.80
2017-10-22T08:02:58.551Z,0.87
2017-10-22T08:05:25.995Z,1.07
2017-10-22T08:07:54.219Z,0.83
2017-10-22T08:10:21.656Z,0.87
2017-10-22T08:12:49.110Z,1.10
2017-10-22T08:15:16.611Z,0.80
2017-10-22T08:17:44.073Z,1.60
2017-10-22T08:20:11.527Z,0.80
2017-10-22T08:22:38.983Z,0.80
2017-10-22T08:25:06.428Z,1.20
2017-10-22T08:27:33.896Z,1.00
2017-10-22T08:30:01.336Z,1.80
2017-10-22T08:32:28.814Z,1.63
2017-10-22T08:34:56.264Z,0.60
2017-10-22T08:37:23.727Z,0.80
2017-10-22T08:39:51.165Z,0.97
2017-10-22T08:42:18.611Z,0.70
2017-10-22T08:44:46.074Z,0.90
2017-10-22T08:47:13.519Z,1.00
2017-10-22T08:49:40.996Z,1.00
2017-10-22T08:52:08.438Z,0.80
2017-10-22T08:54:35.900Z,0.83
2017-10-22T08:57:03.356Z,4.43
2017-10-22T08:59:30.936Z,1.37
2017-10-22T09:01:58.386Z,1.13
2017-10-22T09:04:25.849Z,3.30
2017-10-22T09:06:53.288Z,1.50
2017-10-22T09:09:20.748Z,1.33
2017-10-22T09:11:48.188Z,1.00
2017-10-22T09:14:15.655Z,1.30
2017-10-22T09:16:43.215Z,0.90
2017-10-22T09:19:10.678Z,1.67
2017-10-22T09:21:38.139Z,1.60
2017-10-22T09:24:05.599Z,0.90
2017-10-22T09:26:33.074Z,1.00
2017-10-22T09:29:00.552Z,0.80
2017-10-22T09:31:28.779Z,1.17
2017-10-22T09:33:56.226Z,1.20
2017-10-22T09:36:23.691Z,0.90
2017-10-22T09:38:51.151Z,1.00
2017-10-22T09:41:18.603Z,1.10
2017-10-22T09:43:46.062Z,2.30
2017-10-22T09:46:13.515Z,0.83
2017-10-22T09:48:40.941Z,1.13
2017-10-22T09:51:09.158Z,0.90
2017-10-22T09:53:36.620Z,0.80
2017-10-22T09:56:04.077Z,0.80
2017-10-22T09:58:31.531Z,0.73
2017-10-22T10:00:58.982Z,0.97
2017-10-22T10:03:26.449Z,0.90
2017-10-22T10:05:53.893Z,0.97
2017-10-22T10:08:21.347Z,1.17
2017-10-22T10:10:48.808Z,0.93
2017-10-22T10:13:17.003Z,1.00
2017-10-22T10:15:44.478Z,1.27
2017-10-22T10:18:11.915Z,0.90
2017-10-22T10:20:39.352Z,0.73
2017-10-22T10:23:06.809Z,0.90
2017-10-22T10:25:34.270Z,1.00
2017-10-22T10:28:01.731Z,1.00
2017-10-22T10:30:29.181Z,1.10
2017-10-22T10:32:56.640Z,1.00
2017-10-22T10:35:24.076Z,0.80
2017-10-22T10:37:51.538Z,1.10
2017-10-22T10:40:18.971Z,0.70
2017-10-22T10:42:47.187Z,1.00
2017-10-22T10:45:14.640Z,0.87
2017-10-22T10:47:42.095Z,0.73
2017-10-22T10:50:09.523Z,0.70
2017-10-22T10:52:36.974Z,0.83
2017-10-22T10:55:05.186Z,0.90
2017-10-22T10:57:32.628Z,0.77
2017-10-22T11:00:00.080Z,1.20
2017-10-22T11:02:27.523Z,1.10
2017-10-22T11:04:55.781Z,1.00
2017-10-22T11:07:23.243Z,0.93
2017-10-22T11:09:51.451Z,1.00
2017-10-22T11:12:18.893Z,1.33
2017-10-22T11:14:46.343Z,1.33
2017-10-22T11:17:14.564Z,1.30
2017-10-22T11:19:42.021Z,1.10
2017-10-22T11:22:10.235Z,0.90
2017-10-22T11:24:37.682Z,1.10
2017-10-22T11:27:05.124Z,1.10
2017-10-22T11:29:32.580Z,1.30
2017-10-22T11:32:00.019Z,1.37
2017-10-22T11:34:27.471Z,1.40
2017-10-22T11:36:54.935Z,1.20
2017-10-22T11:39:22.489Z,1.20
2017-10-22T11:41:49.915Z,1.20
2017-10-22T11:44:17.367Z,1.57
2017-10-22T11:46:45.575Z,1.00
2017-10-22T11:49:13.028Z,1.30
2017-10-22T11:51:41.279Z,1.63
2017-10-22T11:54:09.495Z,1.37
2017-10-22T11:56:36.939Z,1.30
2017-10-22T11:59:05.331Z,1.20
2017-10-22T12:01:32.791Z,1.10
2017-10-22T12:04:00.263Z,1.10
2017-10-22T12:06:27.734Z,0.97
2017-10-22T12:08:55.171Z,0.90
2017-10-22T12:11:22.628Z,1.07
2017-10-22T12:13:50.079Z,1.20
2017-10-22T12:16:17.525Z,4.17
2017-10-22T12:18:44.976Z,20.83
2017-10-22T12:21:12.429Z,26.30
2017-10-22T12:23:39.885Z,13.70
2017-10-22T12:26:07.341Z,47.80
2017-10-22T12:28:34.824Z,27.30
2017-10-22T12:31:02.287Z,6.40
2017-10-22T12:33:29.739Z,1.87
2017-10-22T12:35:57.214Z,1.93
2017-10-22T12:38:24.655Z,1.60
2017-10-22T12:40:52.111Z,1.10
2017-10-22T12:43:19.559Z,1.03
2017-10-22T12:45:47.027Z,1.30
2017-10-22T12:48:14.474Z,1.37
2017-10-22T12:50:41.948Z,1.00
2017-10-22T12:53:09.398Z,1.07
2017-10-22T12:55:36.847Z,0.90
2017-10-22T12:58:04.307Z,0.90
2017-10-22T13:00:31.759Z,0.93
2017-10-22T13:02:59.210Z,2.57
2017-10-22T13:05:26.662Z,1.63
2017-10-22T13:07:54.119Z,1.10
2017-10-22T13:10:21.565Z,1.60
2017-10-22T13:12:49.014Z,0.87
2017-10-22T13:15:16.456Z,1.47
2017-10-22T13:17:44.675Z,1.47
2017-10-22T13:20:12.107Z,1.50
2017-10-22T13:22:39.561Z,1.67
2017-10-22T13:25:06.995Z,1.37
2017-10-22T13:27:35.219Z,1.33
2017-10-22T13:30:02.668Z,1.80
2017-10-22T13:32:30.142Z,2.00
2017-10-22T13:34:57.587Z,1.30
2017-10-22T13:37:25.027Z,1.53
2017-10-22T13:39:52.483Z,1.63
2017-10-22T13:42:19.918Z,2.40
2017-10-22T13:44:47.371Z,1.63
2017-10-22T13:47:15.760Z,1.40
2017-10-22T13:49:43.210Z,1.50
2017-10-22T13:52:11.415Z,1.30
2017-10-22T13:54:38.863Z,1.30
2017-10-22T13:57:06.307Z,1.50
2017-10-22T13:59:33.750Z,1.60
2017-10-22T14:02:01.969Z,2.30
2017-10-22T14:04:29.423Z,1.63
2017-10-22T14:06:56.867Z,1.43
2017-10-22T14:09:24.323Z,1.77
2017-10-22T14:11:51.764Z,2.43
2017-10-22T14:14:19.975Z,2.87
2017-10-22T14:16:47.427Z,2.00
2017-10-22T14:19:14.882Z,2.77
2017-10-22T14:21:42.315Z,2.00
2017-10-22T14:24:09.791Z,2.17
2017-10-22T14:26:37.222Z,1.40
2017-10-22T14:29:05.422Z,2.10
2017-10-22T14:31:32.858Z,1.73
2017-10-22T14:34:00.293Z,1.30
2017-10-22T14:36:28.510Z,2.33
2017-10-22T14:38:55.943Z,2.60
2017-10-22T14:41:23.383Z,2.97
2017-10-22T14:43:51.591Z,6.63
2017-10-22T14:46:19.061Z,11.37
2017-10-22T14:48:46.498Z,11.30
2017-10-22T14:51:13.967Z,7.50
2017-10-22T14:53:41.398Z,9.63
2017-10-22T14:56:08.912Z,5.20
2017-10-22T14:58:36.360Z,7.77
2017-10-22T15:01:03.840Z,16.30
2017-10-22T15:03:31.279Z,2.53
2017-10-22T15:05:58.742Z,3.57
2017-10-22T15:08:26.192Z,2.10
2017-10-22T15:10:53.653Z,4.20
2017-10-22T15:13:21.106Z,2.43
2017-10-22T15:15:48.567Z,2.67
2017-10-22T15:18:16.017Z,6.83
2017-10-22T15:20:43.474Z,2.40
2017-10-22T15:23:10.921Z,2.10
2017-10-22T15:25:38.375Z,2.53
2017-10-22T15:28:05.828Z,3.43
2017-10-22T15:30:33.260Z,2.03
2017-10-22T15:33:00.720Z,2.30
2017-10-22T15:35:28.150Z,4.73
2017-10-22T15:37:55.591Z,1.93
2017-10-22T15:40:23.035Z,1.90
2017-10-22T15:42:50.491Z,1.93
2017-10-22T15:45:18.016Z,3.90
2017-10-22T15:47:45.495Z,1.50
2017-10-22T15:50:12.947Z,2.10
2017-10-22T15:52:40.408Z,1.77
2017-10-22T15:55:07.830Z,3.30
2017-10-22T15:57:35.283Z,2.17
2017-10-22T16:00:02.737Z,2.97
2017-10-22T16:02:31.006Z,3.90
2017-10-22T16:04:59.227Z,8.83
2017-10-22T16:07:26.707Z,2.10
2017-10-22T16:09:54.152Z,6.50
2017-10-22T16:12:21.594Z,2.37
2017-10-22T16:14:49.039Z,8.90
2017-10-22T16:17:16.479Z,3.47
2017-10-22T16:19:44.698Z,4.73
2017-10-22T16:22:12.147Z,5.87
2017-10-22T16:24:39.603Z,3.83
2017-10-22T16:27:07.046Z,4.90
2017-10-22T16:29:34.499Z,1.73
2017-10-22T16:32:01.946Z,5.00
2017-10-22T16:34:29.400Z,2.07
2017-10-22T16:36:56.843Z,2.63
2017-10-22T16:39:25.069Z,3.00
2017-10-22T16:41:52.508Z,3.20
2017-10-22T16:44:19.972Z,3.80
2017-10-22T16:46:47.456Z,2.47
2017-10-22T16:49:14.907Z,4.17
2017-10-22T16:51:42.354Z,1.80
2017-10-22T16:54:09.835Z,3.30
2017-10-22T16:56:37.279Z,2.97
2017-10-22T16:59:04.725Z,3.43
2017-10-22T17:01:32.184Z,1.80
2017-10-22T17:03:59.631Z,3.83
2017-10-22T17:06:27.087Z,3.10
2017-10-22T17:08:54.532Z,3.80
2017-10-22T17:11:21.978Z,2.67
2017-10-22T17:13:49.423Z,4.70
2017-10-22T17:16:17.642Z,4.57
2017-10-22T17:18:45.091Z,2.73
2017-10-22T17:21:12.550Z,3.00
2017-10-22T17:23:40.029Z,5.27
2017-10-22T17:26:07.484Z,7.07
2017-10-22T17:28:34.926Z,9.60
2017-10-22T17:31:02.380Z,5.70
2017-10-22T17:33:29.844Z,3.90
2017-10-22T17:35:57.311Z,4.10
2017-10-22T17:38:24.763Z,2.40
2017-10-22T17:40:52.215Z,2.20
2017-10-22T17:43:19.672Z,1.93
2017-10-22T17:45:47.148Z,2.13
2017-10-22T17:48:14.587Z,2.00
2017-10-22T17:50:42.034Z,2.13
2017-10-22T17:53:09.491Z,1.50
2017-10-22T17:55:36.947Z,1.70
2017-10-22T17:58:04.390Z,2.20
2017-10-22T18:00:31.834Z,2.00
2017-10-22T18:02:59.287Z,2.47
2017-10-22T18:05:27.498Z,2.30
2017-10-22T18:07:54.963Z,1.90
2017-10-22T18:10:22.404Z,1.70
2017-10-22T18:12:49.848Z,3.30
2017-10-22T18:15:17.285Z,1.70
2017-10-22T18:17:45.514Z,1.20
2017-10-22T18:20:12.965Z,2.37
2017-10-22T18:22:40.498Z,2.17
2017-10-22T18:25:07.939Z,3.00
2017-10-22T18:27:36.156Z,2.13
2017-10-22T18:30:03.593Z,2.00
2017-10-22T18:32:31.052Z,3.00
2017-10-22T18:34:58.488Z,2.40
2017-10-22T18:37:26.739Z,1.97
2017-10-22T18:39:54.179Z,2.13
2017-10-22T18:42:21.635Z,1.87
2017-10-22T18:44:49.087Z,2.23
2017-10-22T18:47:16.541Z,2.83
2017-10-22T18:49:43.987Z,3.00
2017-10-22T18:52:11.432Z,2.93
2017-10-22T18:54:38.889Z,2.20
2017-10-22T18:57:06.344Z,2.50
2017-10-22T18:59:33.803Z,2.60
2017-10-22T19:02:01.248Z,2.00
2017-10-22T19:04:28.772Z,3.60
2017-10-22T19:06:56.978Z,1.93
2017-10-22T19:09:24.422Z,2.37
2017-10-22T19:11:51.867Z,1.50
2017-10-22T19:14:20.098Z,1.63
2017-10-22T19:16:48.299Z,1.80
2017-10-22T19:19:15.763Z,2.00
2017-10-22T19:21:43.213Z,2.30
2017-10-22T19:24:10.661Z,2.60
2017-10-22T19:26:38.103Z,2.00
2017-10-22T19:29:05.551Z,2.20
2017-10-22T19:31:33.061Z,2.57
2017-10-22T19:34:01.268Z,2.27
2017-10-22T19:36:28.715Z,2.33
2017-10-22T19:38:56.156Z,2.40
2017-10-22T19:41:23.611Z,2.50
2017-10-22T19:43:51.837Z,2.13
2017-10-22T19:46:19.298Z,2.20
2017-10-22T19:48:46.743Z,2.43
2017-10-22T19:51:14.205Z,2.13
2017-10-22T19:53:41.635Z,2.03
2017-10-22T19:56:09.103Z,2.67
2017-10-22T19:58:36.647Z,2.33
2017-10-22T20:01:04.851Z,1.73
2017-10-22T20:03:32.301Z,1.87
2017-10-22T20:05:59.755Z,2.37
2017-10-22T20:08:27.183Z,2.13
2017-10-22T20:10:54.635Z,1.87
2017-10-22T20:13:22.078Z,2.10
2017-10-22T20:15:50.300Z,1.60
2017-10-22T20:18:17.749Z,1.80
2017-10-22T20:20:45.195Z,2.97
2017-10-22T20:23:12.643Z,2.53
2017-10-22T20:25:40.077Z,2.30
2017-10-22T20:28:07.536Z,1.60
2017-10-22T20:30:35.007Z,2.00
2017-10-22T20:33:03.232Z,1.97
2017-10-22T20:35:30.681Z,1.70
2017-10-22T20:37:58.134Z,2.00
2017-10-22T20:40:25.582Z,1.80
2017-10-22T20:42:53.044Z,2.10
2017-10-22T20:45:20.485Z,2.30
2017-10-22T20:47:47.932Z,1.97
2017-10-22T20:50:15.371Z,1.77
2017-10-22T20:52:43.593Z,2.00
2017-10-22T20:55:11.043Z,2.27
2017-10-22T20:57:38.506Z,1.80
2017-10-22T21:00:05.931Z,1.80
2017-10-22T21:02:33.385Z,2.30
2017-10-22T21:05:01.596Z,2.03
2017-10-22T21:07:29.043Z,1.30
2017-10-22T21:09:56.513Z,1.90
2017-10-22T21:12:23.959Z,2.20
2017-10-22T21:14:51.452Z,1.97
2017-10-22T21:17:18.903Z,1.77
2017-10-22T21:19:46.356Z,2.00
2017-10-22T21:22:13.803Z,2.43
2017-10-22T21:24:41.265Z,1.60
2017-10-22T21:27:08.708Z,1.67
2017-10-22T21:29:36.166Z,2.00
2017-10-22T21:32:03.603Z,2.70
2017-10-22T21:34:31.082Z,1.40
2017-10-22T21:36:58.523Z,1.80
2017-10-22T21:39:25.966Z,2.00
2017-10-22T21:41:53.420Z,1.60
2017-10-22T21:44:21.629Z,2.03
2017-10-22T21:46:49.066Z,1.87
2017-10-22T21:49:16.512Z,1.73
2017-10-22T21:51:43.959Z,2.03
2017-10-22T21:54:12.165Z,2.30
2017-10-22T21:56:39.649Z,2.30
2017-10-22T21:59:07.098Z,1.80
2017-10-22T22:01:34.544Z,1.80
2017-10-22T22:04:02.019Z,1.80
2017-10-22T22:06:29.468Z,1.57
2017-10-22T22:08:56.934Z,2.20
2017-10-22T22:11:24.382Z,1.90
2017-10-22T22:13:52.615Z,2.77
2017-10-22T22:16:20.063Z,2.80
2017-10-22T22:18:48.277Z,2.17
2017-10-22T22:21:15.749Z,2.50
2017-10-22T22:23:43.204Z,1.83
2017-10-22T22:26:11.421Z,3.53
2017-10-22T22:28:39.646Z,1.77
2017-10-22T22:31:07.110Z,2.50
2017-10-22T22:33:34.563Z,2.37
2017-10-22T22:36:02.017Z,1.83
2017-10-22T22:38:29.483Z,2.30
2017-10-22T22:40:56.926Z,1.70
2017-10-22T22:43:24.391Z,2.63
2017-10-22T22:45:51.840Z,1.97
2017-10-22T22:48:19.293Z,2.50
2017-10-22T22:50:46.741Z,1.90
2017-10-22T22:53:14.176Z,2.40
2017-10-22T22:55:42.399Z,2.33
2017-10-22T22:58:09.847Z,3.10
2017-10-22T23:00:37.318Z,1.67
2017-10-22T23:03:04.777Z,1.93
2017-10-22T23:05:32.232Z,2.13
2017-10-22T23:07:59.684Z,2.43
2017-10-22T23:10:27.122Z,1.93
2017-10-22T23:12:54.567Z,2.20
2017-10-22T23:15:22.007Z,2.87
2017-10-22T23:17:50.228Z,2.80
2017-10-22T23:20:17.674Z,2.37
2017-10-22T23:22:45.157Z,1.93
2017-10-22T23:25:12.595Z,2.27
2017-10-22T23:27:40.049Z,1.93
2017-10-22T23:30:07.508Z,2.30
2017-10-22T23:32:34.968Z,2.10
2017-10-22T23:35:02.418Z,2.67
2017-10-22T23:37:29.872Z,2.63
2017-10-22T23:39:57.336Z,2.10
2017-10-22T23:42:24.789Z,2.23
2017-10-22T23:44:52.260Z,2.47
2017-10-22T23:47:20.479Z,2.00
2017-10-22T23:49:47.904Z,2.40
2017-10-22T23:52:15.355Z,2.20
2017-10-22T23:54:42.795Z,2.53
2017-10-22T23:57:10.249Z,2.20
2017-10-22T23:59:37.703Z,2.60
